sensor_id;sensor_type;location;lat;lon;timestamp;temperature;humidity
42199;DHT22;27868;45.184;5.786;2023-02-28T00:02:43;6.50;67.80
42199;DHT22;27868;45.184;5.786;2023-02-28T00:05:29;6.40;67.80
42199;DHT22;27868;45.184;5.786;2023-02-28T00:08:13;6.50;67.90
42199;DHT22;27868;45.184;5.786;2023-02-28T00:11:07;6.50;67.90
42199;DHT22;27868;45.184;5.786;2023-02-28T00:13:53;6.50;68.10
42199;DHT22;27868;45.184;5.786;2023-02-28T00:16:37;6.50;68.30
42199;DHT22;27868;45.184;5.786;2023-02-28T00:19:22;6.50;68.00
42199;DHT22;27868;45.184;5.786;2023-02-28T00:22:06;6.50;67.90
42199;DHT22;27868;45.184;5.786;2023-02-28T00:30:20;6.50;68.70
42199;DHT22;27868;45.184;5.786;2023-02-28T00:33:05;6.50;68.30
42199;DHT22;27868;45.184;5.786;2023-02-28T00:35:50;6.50;68.20
42199;DHT22;27868;45.184;5.786;2023-02-28T00:38:34;6.60;68.10
42199;DHT22;27868;45.184;5.786;2023-02-28T00:41:19;6.50;68.10
42199;DHT22;27868;45.184;5.786;2023-02-28T00:44:04;6.50;68.10
42199;DHT22;27868;45.184;5.786;2023-02-28T00:46:48;6.50;68.20
42199;DHT22;27868;45.184;5.786;2023-02-28T00:49:33;6.50;68.40
42199;DHT22;27868;45.184;5.786;2023-02-28T00:52:18;6.50;68.30
42199;DHT22;27868;45.184;5.786;2023-02-28T00:55:02;6.50;68.40
42199;DHT22;27868;45.184;5.786;2023-02-28T00:57:47;6.50;68.60
42199;DHT22;27868;45.184;5.786;2023-02-28T01:00:32;6.60;68.70
42199;DHT22;27868;45.184;5.786;2023-02-28T01:03:17;6.50;68.80
42199;DHT22;27868;45.184;5.786;2023-02-28T01:06:02;6.60;69.00
42199;DHT22;27868;45.184;5.786;2023-02-28T01:08:48;6.50;69.00
42199;DHT22;27868;45.184;5.786;2023-02-28T01:11:33;6.50;69.20
42199;DHT22;27868;45.184;5.786;2023-02-28T01:14:18;6.50;69.20
42199;DHT22;27868;45.184;5.786;2023-02-28T01:17:03;6.50;69.30
42199;DHT22;27868;45.184;5.786;2023-02-28T01:19:48;6.50;69.20
42199;DHT22;27868;45.184;5.786;2023-02-28T01:22:34;6.50;69.20
42199;DHT22;27868;45.184;5.786;2023-02-28T01:25:19;6.40;69.00
42199;DHT22;27868;45.184;5.786;2023-02-28T01:28:03;6.50;68.90
42199;DHT22;27868;45.184;5.786;2023-02-28T01:30:49;6.40;68.80
42199;DHT22;27868;45.184;5.786;2023-02-28T01:33:34;6.40;68.90
42199;DHT22;27868;45.184;5.786;2023-02-28T01:36:22;6.40;69.00
42199;DHT22;27868;45.184;5.786;2023-02-28T01:39:07;6.40;69.10
42199;DHT22;27868;45.184;5.786;2023-02-28T01:41:52;6.30;69.10
42199;DHT22;27868;45.184;5.786;2023-02-28T01:45:04;6.30;69.00
42199;DHT22;27868;45.184;5.786;2023-02-28T01:47:54;6.30;69.30
42199;DHT22;27868;45.184;5.786;2023-02-28T01:50:43;6.30;69.40
42199;DHT22;27868;45.184;5.786;2023-02-28T01:53:41;6.30;69.30
42199;DHT22;27868;45.184;5.786;2023-02-28T01:56:30;6.30;69.30
42199;DHT22;27868;45.184;5.786;2023-02-28T01:59:24;6.20;69.30
42199;DHT22;27868;45.184;5.786;2023-02-28T02:02:10;6.20;69.30
42199;DHT22;27868;45.184;5.786;2023-02-28T02:05:00;6.20;69.40
42199;DHT22;27868;45.184;5.786;2023-02-28T02:07:50;6.10;69.40
42199;DHT22;27868;45.184;5.786;2023-02-28T02:10:36;6.10;69.50
42199;DHT22;27868;45.184;5.786;2023-02-28T02:20:23;6.10;69.90
42199;DHT22;27868;45.184;5.786;2023-02-28T02:40:20;6.00;70.20
42199;DHT22;27868;45.184;5.786;2023-02-28T02:43:28;6.00;70.30
42199;DHT22;27868;45.184;5.786;2023-02-28T02:49:55;6.00;70.30
42199;DHT22;27868;45.184;5.786;2023-02-28T02:52:23;5.90;70.20
42199;DHT22;27868;45.184;5.786;2023-02-28T02:55:11;5.90;70.10
42199;DHT22;27868;45.184;5.786;2023-02-28T02:58:03;5.90;70.10
42199;DHT22;27868;45.184;5.786;2023-02-28T03:00:52;5.90;70.40
42199;DHT22;27868;45.184;5.786;2023-02-28T03:03:38;5.90;70.40
42199;DHT22;27868;45.184;5.786;2023-02-28T03:06:24;5.90;70.30
42199;DHT22;27868;45.184;5.786;2023-02-28T03:09:09;5.80;70.40
42199;DHT22;27868;45.184;5.786;2023-02-28T03:11:55;5.80;70.50
42199;DHT22;27868;45.184;5.786;2023-02-28T03:17:56;5.80;70.70
42199;DHT22;27868;45.184;5.786;2023-02-28T03:21:12;5.80;70.80
42199;DHT22;27868;45.184;5.786;2023-02-28T03:24:41;5.80;70.80
42199;DHT22;27868;45.184;5.786;2023-02-28T03:27:30;5.80;71.00
42199;DHT22;27868;45.184;5.786;2023-02-28T03:30:29;5.80;71.10
42199;DHT22;27868;45.184;5.786;2023-02-28T03:33:21;5.80;71.20
42199;DHT22;27868;45.184;5.786;2023-02-28T03:36:14;5.80;71.90
42199;DHT22;27868;45.184;5.786;2023-02-28T03:39:09;5.80;71.30
42199;DHT22;27868;45.184;5.786;2023-02-28T03:42:01;5.80;71.30
42199;DHT22;27868;45.184;5.786;2023-02-28T03:44:54;5.80;71.30
42199;DHT22;27868;45.184;5.786;2023-02-28T03:50:29;5.80;71.30
42199;DHT22;27868;45.184;5.786;2023-02-28T03:53:23;5.80;71.10
42199;DHT22;27868;45.184;5.786;2023-02-28T03:56:19;5.80;71.10
42199;DHT22;27868;45.184;5.786;2023-02-28T04:02:11;5.70;71.20
42199;DHT22;27868;45.184;5.786;2023-02-28T04:04:55;5.70;71.20
42199;DHT22;27868;45.184;5.786;2023-02-28T04:07:41;5.70;71.20
42199;DHT22;27868;45.184;5.786;2023-02-28T04:10:25;5.70;71.20
42199;DHT22;27868;45.184;5.786;2023-02-28T04:13:10;5.70;71.10
42199;DHT22;27868;45.184;5.786;2023-02-28T04:15:54;5.70;71.20
42199;DHT22;27868;45.184;5.786;2023-02-28T04:18:39;5.70;71.40
42199;DHT22;27868;45.184;5.786;2023-02-28T04:21:24;5.70;71.50
42199;DHT22;27868;45.184;5.786;2023-02-28T04:24:11;5.70;71.40
42199;DHT22;27868;45.184;5.786;2023-02-28T04:26:58;5.70;71.50
42199;DHT22;27868;45.184;5.786;2023-02-28T04:29:43;5.60;71.60
42199;DHT22;27868;45.184;5.786;2023-02-28T04:32:28;5.60;71.60
42199;DHT22;27868;45.184;5.786;2023-02-28T04:35:13;5.60;71.70
42199;DHT22;27868;45.184;5.786;2023-02-28T04:37:58;5.60;71.70
42199;DHT22;27868;45.184;5.786;2023-02-28T04:40:42;5.60;71.80
42199;DHT22;27868;45.184;5.786;2023-02-28T04:43:27;5.60;71.90
42199;DHT22;27868;45.184;5.786;2023-02-28T04:46:12;5.60;72.00
42199;DHT22;27868;45.184;5.786;2023-02-28T04:48:57;5.60;72.00
42199;DHT22;27868;45.184;5.786;2023-02-28T04:51:43;5.50;71.90
42199;DHT22;27868;45.184;5.786;2023-02-28T04:54:28;5.60;72.40
42199;DHT22;27868;45.184;5.786;2023-02-28T04:57:13;5.50;71.70
42199;DHT22;27868;45.184;5.786;2023-02-28T04:59:58;5.50;72.50
42199;DHT22;27868;45.184;5.786;2023-02-28T05:02:42;5.60;72.10
42199;DHT22;27868;45.184;5.786;2023-02-28T05:05:27;5.50;72.00
42199;DHT22;27868;45.184;5.786;2023-02-28T05:08:12;5.50;72.00
42199;DHT22;27868;45.184;5.786;2023-02-28T05:10:57;5.50;72.10
42199;DHT22;27868;45.184;5.786;2023-02-28T05:13:42;5.50;72.20
42199;DHT22;27868;45.184;5.786;2023-02-28T05:16:26;5.50;72.00
42199;DHT22;27868;45.184;5.786;2023-02-28T05:19:10;5.50;72.00
42199;DHT22;27868;45.184;5.786;2023-02-28T05:21:55;5.50;71.90
42199;DHT22;27868;45.184;5.786;2023-02-28T05:24:40;5.50;71.90
42199;DHT22;27868;45.184;5.786;2023-02-28T05:27:26;5.50;72.00
42199;DHT22;27868;45.184;5.786;2023-02-28T05:30:12;5.40;72.00
42199;DHT22;27868;45.184;5.786;2023-02-28T05:32:58;5.40;72.20
42199;DHT22;27868;45.184;5.786;2023-02-28T05:35:42;5.40;72.40
42199;DHT22;27868;45.184;5.786;2023-02-28T05:38:27;5.50;72.50
42199;DHT22;27868;45.184;5.786;2023-02-28T05:41:11;5.40;72.60
42199;DHT22;27868;45.184;5.786;2023-02-28T05:43:57;5.40;72.70
42199;DHT22;27868;45.184;5.786;2023-02-28T05:46:42;5.30;72.60
42199;DHT22;27868;45.184;5.786;2023-02-28T05:49:26;5.40;72.60
42199;DHT22;27868;45.184;5.786;2023-02-28T05:52:11;5.40;72.50
42199;DHT22;27868;45.184;5.786;2023-02-28T05:54:55;5.40;72.40
42199;DHT22;27868;45.184;5.786;2023-02-28T05:57:40;5.40;72.50
42199;DHT22;27868;45.184;5.786;2023-02-28T06:00:25;5.40;72.40
42199;DHT22;27868;45.184;5.786;2023-02-28T06:03:09;5.40;72.40
42199;DHT22;27868;45.184;5.786;2023-02-28T06:05:54;5.30;72.40
42199;DHT22;27868;45.184;5.786;2023-02-28T06:08:38;5.30;72.40
42199;DHT22;27868;45.184;5.786;2023-02-28T06:11:23;5.30;72.30
42199;DHT22;27868;45.184;5.786;2023-02-28T06:14:16;5.30;72.40
42199;DHT22;27868;45.184;5.786;2023-02-28T06:17:02;5.30;72.40
42199;DHT22;27868;45.184;5.786;2023-02-28T06:19:46;5.30;72.60
42199;DHT22;27868;45.184;5.786;2023-02-28T06:22:32;5.20;72.50
42199;DHT22;27868;45.184;5.786;2023-02-28T06:25:17;5.20;72.50
42199;DHT22;27868;45.184;5.786;2023-02-28T06:28:01;5.20;72.60
42199;DHT22;27868;45.184;5.786;2023-02-28T06:30:46;5.20;72.60
42199;DHT22;27868;45.184;5.786;2023-02-28T06:33:30;5.10;72.60
42199;DHT22;27868;45.184;5.786;2023-02-28T06:36:15;5.10;72.70
42199;DHT22;27868;45.184;5.786;2023-02-28T06:39:00;5.20;72.90
42199;DHT22;27868;45.184;5.786;2023-02-28T06:41:45;5.10;72.90
42199;DHT22;27868;45.184;5.786;2023-02-28T06:44:32;5.10;73.00
42199;DHT22;27868;45.184;5.786;2023-02-28T06:47:19;5.10;73.00
42199;DHT22;27868;45.184;5.786;2023-02-28T06:50:05;5.10;73.00
42199;DHT22;27868;45.184;5.786;2023-02-28T06:52:49;5.10;73.00
42199;DHT22;27868;45.184;5.786;2023-02-28T06:55:39;5.10;73.10
42199;DHT22;27868;45.184;5.786;2023-02-28T06:58:24;5.10;73.20
42199;DHT22;27868;45.184;5.786;2023-02-28T07:01:10;5.10;73.30
42199;DHT22;27868;45.184;5.786;2023-02-28T07:03:55;5.10;73.40
42199;DHT22;27868;45.184;5.786;2023-02-28T07:06:40;5.00;73.40
42199;DHT22;27868;45.184;5.786;2023-02-28T07:09:25;5.10;73.60
42199;DHT22;27868;45.184;5.786;2023-02-28T07:12:14;5.10;73.70
42199;DHT22;27868;45.184;5.786;2023-02-28T07:14:59;5.10;73.70
42199;DHT22;27868;45.184;5.786;2023-02-28T07:17:43;5.10;73.80
42199;DHT22;27868;45.184;5.786;2023-02-28T07:20:28;5.10;73.80
42199;DHT22;27868;45.184;5.786;2023-02-28T07:23:13;5.20;74.00
42199;DHT22;27868;45.184;5.786;2023-02-28T07:25:57;5.10;74.10
42199;DHT22;27868;45.184;5.786;2023-02-28T07:28:43;5.20;74.20
42199;DHT22;27868;45.184;5.786;2023-02-28T07:31:28;5.20;74.30
42199;DHT22;27868;45.184;5.786;2023-02-28T07:34:13;5.20;74.40
42199;DHT22;27868;45.184;5.786;2023-02-28T07:36:58;5.30;74.60
42199;DHT22;27868;45.184;5.786;2023-02-28T07:39:44;5.20;74.70
42199;DHT22;27868;45.184;5.786;2023-02-28T07:42:28;5.30;74.60
42199;DHT22;27868;45.184;5.786;2023-02-28T07:45:13;5.30;74.40
42199;DHT22;27868;45.184;5.786;2023-02-28T07:47:57;5.30;74.70
42199;DHT22;27868;45.184;5.786;2023-02-28T07:50:42;5.40;74.90
42199;DHT22;27868;45.184;5.786;2023-02-28T07:53:27;5.50;75.00
42199;DHT22;27868;45.184;5.786;2023-02-28T07:56:12;5.50;74.90
42199;DHT22;27868;45.184;5.786;2023-02-28T07:58:56;5.50;74.80
42199;DHT22;27868;45.184;5.786;2023-02-28T08:01:41;5.60;75.20
42199;DHT22;27868;45.184;5.786;2023-02-28T08:04:31;5.50;74.70
42199;DHT22;27868;45.184;5.786;2023-02-28T08:07:17;5.60;74.80
42199;DHT22;27868;45.184;5.786;2023-02-28T08:10:01;5.60;74.60
42199;DHT22;27868;45.184;5.786;2023-02-28T08:12:46;5.70;74.70
42199;DHT22;27868;45.184;5.786;2023-02-28T08:15:31;5.70;75.40
42199;DHT22;27868;45.184;5.786;2023-02-28T08:18:15;5.80;75.30
42199;DHT22;27868;45.184;5.786;2023-02-28T08:21:09;5.80;75.30
42199;DHT22;27868;45.184;5.786;2023-02-28T08:23:54;5.80;75.40
42199;DHT22;27868;45.184;5.786;2023-02-28T08:26:38;5.80;75.20
42199;DHT22;27868;45.184;5.786;2023-02-28T08:29:23;5.90;75.00
42199;DHT22;27868;45.184;5.786;2023-02-28T08:32:08;5.90;74.50
42199;DHT22;27868;45.184;5.786;2023-02-28T08:34:52;5.90;74.10
42199;DHT22;27868;45.184;5.786;2023-02-28T08:37:37;6.00;73.70
42199;DHT22;27868;45.184;5.786;2023-02-28T08:40:22;6.00;73.50
42199;DHT22;27868;45.184;5.786;2023-02-28T08:43:07;6.00;73.40
42199;DHT22;27868;45.184;5.786;2023-02-28T08:45:52;6.00;73.30
42199;DHT22;27868;45.184;5.786;2023-02-28T08:48:37;6.00;73.20
42199;DHT22;27868;45.184;5.786;2023-02-28T08:51:24;6.10;73.60
42199;DHT22;27868;45.184;5.786;2023-02-28T08:54:12;6.10;73.90
42199;DHT22;27868;45.184;5.786;2023-02-28T08:56:58;6.10;73.00
42199;DHT22;27868;45.184;5.786;2023-02-28T08:59:43;6.00;72.90
42199;DHT22;27868;45.184;5.786;2023-02-28T09:02:28;6.10;72.90
42199;DHT22;27868;45.184;5.786;2023-02-28T09:05:13;6.10;72.70
42199;DHT22;27868;45.184;5.786;2023-02-28T09:07:58;6.10;72.40
42199;DHT22;27868;45.184;5.786;2023-02-28T09:10:43;6.10;72.60
42199;DHT22;27868;45.184;5.786;2023-02-28T09:13:28;6.10;72.50
42199;DHT22;27868;45.184;5.786;2023-02-28T09:16:14;6.20;72.40
42199;DHT22;27868;45.184;5.786;2023-02-28T09:19:01;6.20;72.60
42199;DHT22;27868;45.184;5.786;2023-02-28T09:21:46;6.30;72.60
42199;DHT22;27868;45.184;5.786;2023-02-28T09:24:30;6.20;72.30
42199;DHT22;27868;45.184;5.786;2023-02-28T09:27:15;6.30;72.30
42199;DHT22;27868;45.184;5.786;2023-02-28T09:30:00;6.30;72.30
42199;DHT22;27868;45.184;5.786;2023-02-28T09:32:45;6.40;72.60
42199;DHT22;27868;45.184;5.786;2023-02-28T09:35:36;6.40;72.60
42199;DHT22;27868;45.184;5.786;2023-02-28T09:38:22;6.50;72.50
42199;DHT22;27868;45.184;5.786;2023-02-28T09:41:16;6.50;72.20
42199;DHT22;27868;45.184;5.786;2023-02-28T09:44:04;6.50;71.90
42199;DHT22;27868;45.184;5.786;2023-02-28T09:46:53;6.60;71.80
42199;DHT22;27868;45.184;5.786;2023-02-28T09:49:42;6.60;71.90
42199;DHT22;27868;45.184;5.786;2023-02-28T09:52:29;6.70;72.20
42199;DHT22;27868;45.184;5.786;2023-02-28T09:58:00;6.70;71.70
42199;DHT22;27868;45.184;5.786;2023-02-28T10:00:56;6.80;71.60
42199;DHT22;27868;45.184;5.786;2023-02-28T10:03:50;6.80;71.40
42199;DHT22;27868;45.184;5.786;2023-02-28T10:06:46;6.90;71.50
42199;DHT22;27868;45.184;5.786;2023-02-28T10:09:32;6.90;70.90
42199;DHT22;27868;45.184;5.786;2023-02-28T10:12:19;7.00;70.70
42199;DHT22;27868;45.184;5.786;2023-02-28T10:15:05;7.00;70.90
42199;DHT22;27868;45.184;5.786;2023-02-28T10:17:53;7.00;70.30
42199;DHT22;27868;45.184;5.786;2023-02-28T10:20:40;7.00;70.00
42199;DHT22;27868;45.184;5.786;2023-02-28T10:23:26;7.00;70.10
42199;DHT22;27868;45.184;5.786;2023-02-28T10:26:14;7.00;70.80
42199;DHT22;27868;45.184;5.786;2023-02-28T10:29:03;7.00;69.80
42199;DHT22;27868;45.184;5.786;2023-02-28T10:31:48;7.00;69.90
42199;DHT22;27868;45.184;5.786;2023-02-28T10:34:33;7.00;69.40
42199;DHT22;27868;45.184;5.786;2023-02-28T10:37:19;7.00;69.50
42199;DHT22;27868;45.184;5.786;2023-02-28T10:40:26;7.10;69.50
42199;DHT22;27868;45.184;5.786;2023-02-28T10:46:02;7.10;69.10
42199;DHT22;27868;45.184;5.786;2023-02-28T10:49:02;7.10;69.60
42199;DHT22;27868;45.184;5.786;2023-02-28T10:51:51;7.10;69.60
42199;DHT22;27868;45.184;5.786;2023-02-28T10:54:36;7.20;69.40
42199;DHT22;27868;45.184;5.786;2023-02-28T10:57:23;7.20;69.20
42199;DHT22;27868;45.184;5.786;2023-02-28T11:00:22;7.10;69.10
42199;DHT22;27868;45.184;5.786;2023-02-28T11:03:28;7.20;68.90
42199;DHT22;27868;45.184;5.786;2023-02-28T11:06:19;7.10;68.80
42199;DHT22;27868;45.184;5.786;2023-02-28T11:09:23;7.20;68.90
42199;DHT22;27868;45.184;5.786;2023-02-28T11:12:36;7.20;69.10
42199;DHT22;27868;45.184;5.786;2023-02-28T11:15:23;7.20;68.20
42199;DHT22;27868;45.184;5.786;2023-02-28T11:20:59;7.20;68.20
42199;DHT22;27868;45.184;5.786;2023-02-28T11:23:44;7.20;68.20
42199;DHT22;27868;45.184;5.786;2023-02-28T11:26:46;7.30;68.40
42199;DHT22;27868;45.184;5.786;2023-02-28T11:29:32;7.30;68.30
42199;DHT22;27868;45.184;5.786;2023-02-28T11:32:20;7.40;68.20
42199;DHT22;27868;45.184;5.786;2023-02-28T11:37:57;7.40;67.90
42199;DHT22;27868;45.184;5.786;2023-02-28T11:46:51;7.50;68.10
42199;DHT22;27868;45.184;5.786;2023-02-28T11:49:44;7.60;68.10
42199;DHT22;27868;45.184;5.786;2023-02-28T11:55:58;7.60;67.90
42199;DHT22;27868;45.184;5.786;2023-02-28T11:58:53;7.60;67.70
42199;DHT22;27868;45.184;5.786;2023-02-28T12:14:06;7.80;66.90
42199;DHT22;27868;45.184;5.786;2023-02-28T12:19:59;7.90;67.30
42199;DHT22;27868;45.184;5.786;2023-02-28T12:26:13;8.00;67.40
42199;DHT22;27868;45.184;5.786;2023-02-28T12:29:19;8.00;66.80
42199;DHT22;27868;45.184;5.786;2023-02-28T12:32:30;8.00;66.90
42199;DHT22;27868;45.184;5.786;2023-02-28T12:35:21;8.00;66.40
42199;DHT22;27868;45.184;5.786;2023-02-28T12:38:18;8.00;66.00
42199;DHT22;27868;45.184;5.786;2023-02-28T12:41:09;8.00;65.90
42199;DHT22;27868;45.184;5.786;2023-02-28T12:44:00;8.00;65.70
42199;DHT22;27868;45.184;5.786;2023-02-28T12:46:51;8.10;66.20
42199;DHT22;27868;45.184;5.786;2023-02-28T12:49:45;8.10;66.40
42199;DHT22;27868;45.184;5.786;2023-02-28T12:55:55;8.20;66.50
42199;DHT22;27868;45.184;5.786;2023-02-28T12:58:59;8.20;65.40
42199;DHT22;27868;45.184;5.786;2023-02-28T13:08:49;8.30;65.00
42199;DHT22;27868;45.184;5.786;2023-02-28T13:11:44;8.20;64.90
42199;DHT22;27868;45.184;5.786;2023-02-28T13:14:35;8.30;65.00
42199;DHT22;27868;45.184;5.786;2023-02-28T13:17:22;8.30;65.10
42199;DHT22;27868;45.184;5.786;2023-02-28T13:20:23;8.30;65.00
42199;DHT22;27868;45.184;5.786;2023-02-28T13:23:38;8.40;65.10
42199;DHT22;27868;45.184;5.786;2023-02-28T13:29:34;8.40;65.40
42199;DHT22;27868;45.184;5.786;2023-02-28T13:37:49;8.50;65.40
42199;DHT22;27868;45.184;5.786;2023-02-28T13:40:34;8.50;64.90
42199;DHT22;27868;45.184;5.786;2023-02-28T13:49:33;8.60;64.60
42199;DHT22;27868;45.184;5.786;2023-02-28T13:52:21;8.60;64.60
42199;DHT22;27868;45.184;5.786;2023-02-28T13:55:24;8.70;64.50
42199;DHT22;27868;45.184;5.786;2023-02-28T14:07:37;8.80;64.80
42199;DHT22;27868;45.184;5.786;2023-02-28T14:10:44;8.80;64.60
42199;DHT22;27868;45.184;5.786;2023-02-28T14:13:45;8.80;64.00
42199;DHT22;27868;45.184;5.786;2023-02-28T14:16:40;8.90;64.00
42199;DHT22;27868;45.184;5.786;2023-02-28T14:19:28;8.80;63.40
42199;DHT22;27868;45.184;5.786;2023-02-28T14:32:10;8.80;63.30
42199;DHT22;27868;45.184;5.786;2023-02-28T14:36:00;8.80;63.20
42199;DHT22;27868;45.184;5.786;2023-02-28T14:38:32;8.80;63.10
42199;DHT22;27868;45.184;5.786;2023-02-28T14:44:15;8.70;63.20
42199;DHT22;27868;45.184;5.786;2023-02-28T14:47:02;8.70;63.30
42199;DHT22;27868;45.184;5.786;2023-02-28T14:49:51;8.70;63.50
42199;DHT22;27868;45.184;5.786;2023-02-28T14:52:36;8.70;63.70
42199;DHT22;27868;45.184;5.786;2023-02-28T14:55:24;8.70;63.80
42199;DHT22;27868;45.184;5.786;2023-02-28T14:58:31;8.70;63.70
42199;DHT22;27868;45.184;5.786;2023-02-28T15:01:20;8.70;63.70
42199;DHT22;27868;45.184;5.786;2023-02-28T15:04:06;8.70;63.70
42199;DHT22;27868;45.184;5.786;2023-02-28T15:07:13;8.70;63.80
42199;DHT22;27868;45.184;5.786;2023-02-28T15:13:00;8.80;63.60
42199;DHT22;27868;45.184;5.786;2023-02-28T15:16:00;8.70;63.60
42199;DHT22;27868;45.184;5.786;2023-02-28T15:21:40;8.80;64.10
42199;DHT22;27868;45.184;5.786;2023-02-28T15:24:44;8.70;64.00
42199;DHT22;27868;45.184;5.786;2023-02-28T15:27:32;8.70;63.80
42199;DHT22;27868;45.184;5.786;2023-02-28T15:30:26;8.70;63.80
42199;DHT22;27868;45.184;5.786;2023-02-28T15:33:21;8.70;63.90
42199;DHT22;27868;45.184;5.786;2023-02-28T15:36:14;8.70;63.90
42199;DHT22;27868;45.184;5.786;2023-02-28T15:39:00;8.70;64.10
42199;DHT22;27868;45.184;5.786;2023-02-28T15:41:45;8.70;64.30
42199;DHT22;27868;45.184;5.786;2023-02-28T15:44:33;8.70;64.30
42199;DHT22;27868;45.184;5.786;2023-02-28T15:47:22;8.70;64.20
42199;DHT22;27868;45.184;5.786;2023-02-28T15:50:11;8.70;64.90
42199;DHT22;27868;45.184;5.786;2023-02-28T15:52:56;8.70;64.20
42199;DHT22;27868;45.184;5.786;2023-02-28T15:55:42;8.70;64.40
42199;DHT22;27868;45.184;5.786;2023-02-28T15:58:27;8.70;64.30
42199;DHT22;27868;45.184;5.786;2023-02-28T16:04:05;8.70;64.10
42199;DHT22;27868;45.184;5.786;2023-02-28T16:09:43;8.70;64.10
42199;DHT22;27868;45.184;5.786;2023-02-28T16:12:30;8.70;64.20
42199;DHT22;27868;45.184;5.786;2023-02-28T16:15:24;8.70;64.30
42199;DHT22;27868;45.184;5.786;2023-02-28T16:18:11;8.60;64.30
42199;DHT22;27868;45.184;5.786;2023-02-28T16:20:56;8.70;64.50
42199;DHT22;27868;45.184;5.786;2023-02-28T16:23:41;8.60;64.50
42199;DHT22;27868;45.184;5.786;2023-02-28T16:26:26;8.60;64.60
42199;DHT22;27868;45.184;5.786;2023-02-28T16:29:27;8.70;64.90
42199;DHT22;27868;45.184;5.786;2023-02-28T16:32:16;8.60;64.90
42199;DHT22;27868;45.184;5.786;2023-02-28T16:35:01;8.60;65.10
42199;DHT22;27868;45.184;5.786;2023-02-28T16:37:46;8.60;64.80
42199;DHT22;27868;45.184;5.786;2023-02-28T16:40:34;8.50;64.70
42199;DHT22;27868;45.184;5.786;2023-02-28T16:43:23;8.60;64.80
42199;DHT22;27868;45.184;5.786;2023-02-28T16:46:10;8.60;64.70
42199;DHT22;27868;45.184;5.786;2023-02-28T16:48:55;8.50;64.80
42199;DHT22;27868;45.184;5.786;2023-02-28T16:51:40;8.50;64.90
42199;DHT22;27868;45.184;5.786;2023-02-28T16:54:26;8.50;64.70
42199;DHT22;27868;45.184;5.786;2023-02-28T16:57:21;8.50;64.70
42199;DHT22;27868;45.184;5.786;2023-02-28T17:00:08;8.50;64.70
42199;DHT22;27868;45.184;5.786;2023-02-28T17:02:56;8.40;64.60
42199;DHT22;27868;45.184;5.786;2023-02-28T17:05:41;8.40;64.80
42199;DHT22;27868;45.184;5.786;2023-02-28T17:08:25;8.40;64.80
42199;DHT22;27868;45.184;5.786;2023-02-28T17:11:11;8.40;64.80
42199;DHT22;27868;45.184;5.786;2023-02-28T17:13:56;8.40;64.90
42199;DHT22;27868;45.184;5.786;2023-02-28T17:16:41;8.40;65.00
42199;DHT22;27868;45.184;5.786;2023-02-28T17:19:26;8.40;65.10
42199;DHT22;27868;45.184;5.786;2023-02-28T17:22:12;8.30;65.20
42199;DHT22;27868;45.184;5.786;2023-02-28T17:24:57;8.40;65.20
42199;DHT22;27868;45.184;5.786;2023-02-28T17:27:43;8.40;65.20
42199;DHT22;27868;45.184;5.786;2023-02-28T17:30:28;8.30;65.30
42199;DHT22;27868;45.184;5.786;2023-02-28T17:33:13;8.30;65.50
42199;DHT22;27868;45.184;5.786;2023-02-28T17:35:57;8.30;65.50
42199;DHT22;27868;45.184;5.786;2023-02-28T17:38:42;8.30;65.60
42199;DHT22;27868;45.184;5.786;2023-02-28T17:41:26;8.30;65.90
42199;DHT22;27868;45.184;5.786;2023-02-28T17:44:14;8.30;66.00
42199;DHT22;27868;45.184;5.786;2023-02-28T17:46:59;8.30;66.00
42199;DHT22;27868;45.184;5.786;2023-02-28T17:49:44;8.30;66.00
42199;DHT22;27868;45.184;5.786;2023-02-28T17:52:28;8.30;66.00
42199;DHT22;27868;45.184;5.786;2023-02-28T17:55:13;8.20;65.90
42199;DHT22;27868;45.184;5.786;2023-02-28T17:57:58;8.20;65.80
42199;DHT22;27868;45.184;5.786;2023-02-28T18:00:43;8.30;65.80
42199;DHT22;27868;45.184;5.786;2023-02-28T18:03:27;8.40;65.70
42199;DHT22;27868;45.184;5.786;2023-02-28T18:06:25;8.20;65.70
42199;DHT22;27868;45.184;5.786;2023-02-28T18:09:16;8.30;65.60
42199;DHT22;27868;45.184;5.786;2023-02-28T18:12:01;8.20;65.60
42199;DHT22;27868;45.184;5.786;2023-02-28T18:14:46;8.20;65.80
42199;DHT22;27868;45.184;5.786;2023-02-28T18:17:32;8.20;65.00
42199;DHT22;27868;45.184;5.786;2023-02-28T18:20:17;8.20;65.40
42199;DHT22;27868;45.184;5.786;2023-02-28T18:23:02;8.20;65.60
42199;DHT22;27868;45.184;5.786;2023-02-28T18:25:47;8.10;65.70
42199;DHT22;27868;45.184;5.786;2023-02-28T18:28:33;8.10;65.80
42199;DHT22;27868;45.184;5.786;2023-02-28T18:31:19;8.20;65.80
42199;DHT22;27868;45.184;5.786;2023-02-28T18:34:04;8.10;65.60
42199;DHT22;27868;45.184;5.786;2023-02-28T18:36:50;8.10;65.60
42199;DHT22;27868;45.184;5.786;2023-02-28T18:39:35;8.00;65.60
42199;DHT22;27868;45.184;5.786;2023-02-28T18:42:19;8.00;65.60
42199;DHT22;27868;45.184;5.786;2023-02-28T18:45:05;8.00;65.60
42199;DHT22;27868;45.184;5.786;2023-02-28T18:47:50;8.00;65.60
42199;DHT22;27868;45.184;5.786;2023-02-28T18:50:38;8.20;65.70
42199;DHT22;27868;45.184;5.786;2023-02-28T18:53:23;8.00;65.60
42199;DHT22;27868;45.184;5.786;2023-02-28T18:56:10;8.00;65.40
42199;DHT22;27868;45.184;5.786;2023-02-28T18:58:55;8.00;65.40
42199;DHT22;27868;45.184;5.786;2023-02-28T19:01:39;8.00;65.40
42199;DHT22;27868;45.184;5.786;2023-02-28T19:04:24;8.00;65.40
42199;DHT22;27868;45.184;5.786;2023-02-28T19:07:09;8.00;65.50
42199;DHT22;27868;45.184;5.786;2023-02-28T19:09:54;8.00;65.60
42199;DHT22;27868;45.184;5.786;2023-02-28T19:12:38;8.00;65.60
42199;DHT22;27868;45.184;5.786;2023-02-28T19:15:26;8.00;65.70
42199;DHT22;27868;45.184;5.786;2023-02-28T19:18:11;8.00;65.60
42199;DHT22;27868;45.184;5.786;2023-02-28T19:20:57;8.00;65.80
42199;DHT22;27868;45.184;5.786;2023-02-28T19:23:42;8.00;65.80
42199;DHT22;27868;45.184;5.786;2023-02-28T19:26:27;8.00;65.80
42199;DHT22;27868;45.184;5.786;2023-02-28T19:29:11;8.00;65.80
42199;DHT22;27868;45.184;5.786;2023-02-28T19:31:56;7.90;65.90
42199;DHT22;27868;45.184;5.786;2023-02-28T19:34:40;7.90;65.90
42199;DHT22;27868;45.184;5.786;2023-02-28T19:37:26;7.90;66.10
42199;DHT22;27868;45.184;5.786;2023-02-28T19:40:11;7.90;65.90
42199;DHT22;27868;45.184;5.786;2023-02-28T19:42:57;7.90;65.90
42199;DHT22;27868;45.184;5.786;2023-02-28T19:45:41;7.90;66.00
42199;DHT22;27868;45.184;5.786;2023-02-28T19:48:26;7.90;66.10
42199;DHT22;27868;45.184;5.786;2023-02-28T19:51:13;7.90;66.10
42199;DHT22;27868;45.184;5.786;2023-02-28T19:53:58;7.90;66.20
42199;DHT22;27868;45.184;5.786;2023-02-28T19:56:43;7.90;66.40
42199;DHT22;27868;45.184;5.786;2023-02-28T19:59:28;7.90;66.60
42199;DHT22;27868;45.184;5.786;2023-02-28T20:02:15;7.90;66.50
42199;DHT22;27868;45.184;5.786;2023-02-28T20:05:01;7.90;66.40
42199;DHT22;27868;45.184;5.786;2023-02-28T20:07:45;7.90;66.40
42199;DHT22;27868;45.184;5.786;2023-02-28T20:10:31;7.80;66.20
42199;DHT22;27868;45.184;5.786;2023-02-28T20:13:16;7.90;66.40
42199;DHT22;27868;45.184;5.786;2023-02-28T20:16:03;7.80;66.40
42199;DHT22;27868;45.184;5.786;2023-02-28T20:18:50;7.80;66.30